LEBB/BIO METAR and TAF weather

Enter ICAO airport designator
Station Type Date Time Source
LEBB METAR 2020/09/19 04:30 UTC NOAA

LEBB 190430Z 07003KT 030V200 CAVOK 19/14 Q1010 NOSIG


Station Type Date Time Source
LEBB Decoded METAR 2020/09/19 04:30 UTC NOAA

Bilbao / Sondica, Spain (LEBB) 43-18N 002-56W 37M
Sep 19, 2020 - 12:30 AM EDT / 2020.09.19 0430 UTC
Wind: from the ENE (070 degrees) at 3 MPH (3 KT) (direction variable):0
Visibility: greater than 7 mile(s):0
Temperature: 66 F (19 C)
Dew Point: 57 F (14 C)
Relative Humidity: 72%
Pressure (altimeter): 29.83 in. Hg (1010 hPa)
ob: LEBB 190430Z 07003KT 030V200 CAVOK 19/14 Q1010 NOSIG
cycle: 4

Station Type Date Time Source
LEBB TAF 2020/09/18 20:13 UTC NOAA

TAF
AMD LEBB 182004Z 1820/1918 12009KT 9999 SCT050 TX26/1914Z TN19/1906Z PROB40
TEMPO 1820/1824 SHRA TS SCT030CB SCT035TCU
BECMG 1908/1912 30010KT PROB40
TEMPO 1912/1918 3000 SHRA TS SCT030TCU SCT040CB

Example: see airport list